createdAt,value
2018-06-24T00:04:37.305Z,15.63
2018-06-24T00:09:15.875Z,15.16
2018-06-24T00:13:54.672Z,15.05
2018-06-24T00:18:33.209Z,14.74
2018-06-24T00:23:11.950Z,15.04
2018-06-24T00:27:50.518Z,15.45
2018-06-24T00:32:32.220Z,16.04
2018-06-24T00:37:10.806Z,16.31
2018-06-24T00:41:50.406Z,16.54
2018-06-24T00:46:28.958Z,16.18
2018-06-24T00:51:11.769Z,16.32
2018-06-24T00:55:50.744Z,16.28
2018-06-24T01:00:29.399Z,16.66
2018-06-24T01:05:12.730Z,16.51
2018-06-24T01:09:51.344Z,16.29
2018-06-24T01:14:30.126Z,16.33
2018-06-24T01:19:08.816Z,15.57
2018-06-24T01:23:48.443Z,15.23
2018-06-24T01:28:27.032Z,15.42
2018-06-24T01:33:06.771Z,14.49
2018-06-24T01:37:45.315Z,14.89
2018-06-24T01:42:24.899Z,14.44
2018-06-24T01:47:03.441Z,15.75
2018-06-24T01:51:42.169Z,14.99
2018-06-24T01:56:20.830Z,15.71
2018-06-24T02:00:59.521Z,14.52
2018-06-24T02:05:38.139Z,15.07
2018-06-24T02:10:16.788Z,15.38
2018-06-24T02:14:58.431Z,15.79
2018-06-24T02:19:37.068Z,15.78
2018-06-24T02:24:15.731Z,15.47
2018-06-24T02:28:54.346Z,15.55
2018-06-24T02:33:36.903Z,13.52
2018-06-24T02:38:15.317Z,14.22
2018-06-24T02:42:53.930Z,13.91
2018-06-24T02:47:32.498Z,14.87
2018-06-24T02:52:14.253Z,14.17
2018-06-24T02:56:52.809Z,14.51
2018-06-24T03:01:31.413Z,14.38
2018-06-24T03:06:09.873Z,14.66
2018-06-24T03:10:49.526Z,14.68
2018-06-24T03:15:28.062Z,14.53
2018-06-24T03:20:06.682Z,15.38
2018-06-24T03:24:46.306Z,15.28
2018-06-24T03:29:24.953Z,15.64
2018-06-24T03:34:03.581Z,15.34
2018-06-24T03:38:42.016Z,15.74
2018-06-24T03:43:20.812Z,15.17
2018-06-24T03:47:59.314Z,15.24
2018-06-24T03:52:37.693Z,15.38
2018-06-24T03:57:16.264Z,15.71
2018-06-24T04:01:55.937Z,15.99
2018-06-24T04:06:34.517Z,16.31
2018-06-24T04:11:16.358Z,16.08
2018-06-24T04:16:00.934Z,16.29
2018-06-24T04:20:40.709Z,16.60
2018-06-24T04:25:19.286Z,16.78
2018-06-24T04:29:57.861Z,16.66
2018-06-24T04:34:36.717Z,16.61
2018-06-24T04:39:15.041Z,17.08
2018-06-24T04:43:53.565Z,17.12
2018-06-24T04:48:32.190Z,17.87
2018-06-24T04:53:10.755Z,17.68
2018-06-24T04:57:49.254Z,18.18
2018-06-24T05:02:28.046Z,17.85
2018-06-24T05:07:06.598Z,16.82
2018-06-24T05:11:45.444Z,17.06
2018-06-24T05:16:24.082Z,17.53
2018-06-24T05:21:03.862Z,17.70
2018-06-24T05:25:42.490Z,18.26
2018-06-24T05:30:22.321Z,18.54
2018-06-24T05:35:01.298Z,19.01
2018-06-24T05:39:39.882Z,18.73
2018-06-24T05:44:21.834Z,19.12
2018-06-24T05:49:00.391Z,19.50
2018-06-24T05:53:39.161Z,18.64
2018-06-24T05:58:22.746Z,19.31
2018-06-24T06:03:02.615Z,19.72
2018-06-24T06:07:41.818Z,19.52
2018-06-24T06:12:20.369Z,20.42
2018-06-24T06:16:58.749Z,20.53
2018-06-24T06:21:37.475Z,19.18
2018-06-24T06:26:16.062Z,19.53
2018-06-24T06:30:54.758Z,20.14
2018-06-24T06:35:33.359Z,20.27
2018-06-24T06:40:13.104Z,20.13
2018-06-24T06:44:51.822Z,21.11
2018-06-24T06:49:30.236Z,20.77
2018-06-24T06:54:08.946Z,20.43
2018-06-24T06:58:47.328Z,19.87
2018-06-24T07:03:27.081Z,20.85
2018-06-24T07:08:05.934Z,20.93
2018-06-24T07:12:47.713Z,20.88
2018-06-24T07:17:26.335Z,22.23
2018-06-24T07:22:06.051Z,22.26
2018-06-24T07:26:44.664Z,21.01
2018-06-24T07:31:26.470Z,20.63
2018-06-24T07:36:04.978Z,21.69
2018-06-24T07:40:48.815Z,22.22
2018-06-24T07:45:27.392Z,22.62
2018-06-24T07:54:43.901Z,22.22
2018-06-24T07:59:22.524Z,22.32
2018-06-24T08:04:01.218Z,23.02
2018-06-24T08:08:39.789Z,23.28
2018-06-24T08:13:18.551Z,23.14
2018-06-24T08:17:57.077Z,23.67
2018-06-24T08:22:36.328Z,23.32
2018-06-24T08:27:16.149Z,23.65
2018-06-24T08:31:57.315Z,23.83
2018-06-24T08:36:37.037Z,23.92
2018-06-24T08:41:17.134Z,23.94
2018-06-24T08:45:56.395Z,23.78
2018-06-24T08:50:36.716Z,24.46
2018-06-24T08:55:16.381Z,23.99
2018-06-24T08:59:59.439Z,23.29
2018-06-24T09:04:39.251Z,24.10
2018-06-24T09:09:17.946Z,24.24
2018-06-24T09:14:01.264Z,24.45
2018-06-24T09:18:39.809Z,24.43
2018-06-24T09:23:18.632Z,23.89
2018-06-24T09:27:57.233Z,23.83
2018-06-24T09:32:35.920Z,23.92
2018-06-24T09:37:14.753Z,23.44
2018-06-24T09:41:57.275Z,23.42
2018-06-24T09:46:37.320Z,23.55
2018-06-24T09:51:19.754Z,23.54
2018-06-24T09:55:58.289Z,23.91
2018-06-24T10:00:42.554Z,23.67
2018-06-24T10:05:22.158Z,23.76
2018-06-24T10:10:04.520Z,23.88
2018-06-24T10:14:43.138Z,23.99
2018-06-24T10:19:21.847Z,23.98
2018-06-24T10:24:01.547Z,23.93
2018-06-24T10:27:58.995Z,24.17
2018-06-24T10:28:49.863Z,24.09
2018-06-24T10:29:35.906Z,23.99
2018-06-24T10:30:21.998Z,24.04
2018-06-24T10:31:06.760Z,24.09
2018-06-24T10:31:50.921Z,24.22
2018-06-24T10:32:36.818Z,24.40
2018-06-24T10:33:21.029Z,24.53
2018-06-24T10:34:06.628Z,24.47
2018-06-24T10:34:51.501Z,24.42
2018-06-24T10:35:37.881Z,24.42
2018-06-24T10:36:23.082Z,24.38
2018-06-24T10:37:07.315Z,24.29
2018-06-24T10:37:52.342Z,24.33
2018-06-24T10:38:37.973Z,24.35
2018-06-24T10:39:24.109Z,24.26
2018-06-24T10:40:09.425Z,24.21
2018-06-24T10:40:55.790Z,24.18
2018-06-24T10:41:39.432Z,24.09
2018-06-24T10:42:23.072Z,24.13
2018-06-24T10:48:09.808Z,24.22
2018-06-24T10:48:53.544Z,24.40
2018-06-24T10:49:37.206Z,24.51
2018-06-24T10:50:20.877Z,24.59
2018-06-24T10:51:04.378Z,24.72
2018-06-24T10:51:47.839Z,24.65
2018-06-24T10:52:31.537Z,24.55
2018-06-24T10:53:16.078Z,24.67
2018-06-24T10:53:59.514Z,24.76
2018-06-24T10:54:43.365Z,24.71
2018-06-24T10:55:27.622Z,24.59
2018-06-24T10:56:11.229Z,24.69
2018-06-24T10:56:54.778Z,24.95
2018-06-24T10:57:38.462Z,24.87
2018-06-24T10:58:22.099Z,24.89
2018-06-24T10:59:05.718Z,24.73
2018-06-24T10:59:49.264Z,24.88
2018-06-24T11:00:32.867Z,24.74
2018-06-24T11:01:17.402Z,24.70
2018-06-24T11:02:01.007Z,24.47
2018-06-24T11:02:44.518Z,24.23
2018-06-24T11:03:28.479Z,24.03
2018-06-24T11:04:12.733Z,24.20
2018-06-24T11:04:56.357Z,24.27
2018-06-24T11:09:40.282Z,23.87
2018-06-24T11:14:23.556Z,23.50
2018-06-24T11:19:07.320Z,23.24
2018-06-24T11:23:51.819Z,23.04
2018-06-24T11:28:36.198Z,22.75
2018-06-24T11:33:19.990Z,22.65
2018-06-24T11:38:08.412Z,22.71
2018-06-24T11:42:52.211Z,22.77
2018-06-24T11:47:35.933Z,22.79
2018-06-24T11:52:19.774Z,23.13
2018-06-24T11:57:03.423Z,23.41
2018-06-24T12:01:48.055Z,23.16
2018-06-24T12:06:31.656Z,23.17
2018-06-24T12:11:16.245Z,23.45
2018-06-24T12:15:59.793Z,23.32
2018-06-24T12:20:44.469Z,23.35
2018-06-24T12:25:27.884Z,23.70
2018-06-24T12:30:12.445Z,23.34
2018-06-24T12:34:56.162Z,22.83
2018-06-24T12:39:40.886Z,22.45
2018-06-24T12:44:25.438Z,22.56
2018-06-24T12:49:16.021Z,22.43
2018-06-24T12:53:59.741Z,22.39
2018-06-24T12:58:43.401Z,22.36
2018-06-24T13:03:30.701Z,22.38
2018-06-24T13:08:14.355Z,22.22
2018-06-24T13:12:59.149Z,22.11
2018-06-24T13:17:43.917Z,22.28
2018-06-24T13:22:29.313Z,22.02
2018-06-24T13:27:14.243Z,21.96
2018-06-24T13:32:02.705Z,21.99
2018-06-24T13:36:46.703Z,21.90
2018-06-24T13:41:32.602Z,21.84
2018-06-24T13:46:16.830Z,21.91
2018-06-24T13:51:01.130Z,21.71
2018-06-24T13:55:45.614Z,21.69
2018-06-24T14:00:33.367Z,21.62
2018-06-24T14:05:17.478Z,21.80
2018-06-24T14:10:12.598Z,21.82
2018-06-24T14:14:57.074Z,21.66
2018-06-24T14:19:42.715Z,22.29
2018-06-24T14:24:27.044Z,22.23
2018-06-24T14:29:13.682Z,22.06
2018-06-24T14:33:57.285Z,21.74
2018-06-24T14:38:41.122Z,21.63
2018-06-24T14:43:25.375Z,21.58
2018-06-24T14:48:08.978Z,21.78
2018-06-24T14:52:56.341Z,21.91
2018-06-24T14:57:39.947Z,21.83
2018-06-24T15:02:23.582Z,21.71
2018-06-24T15:07:07.281Z,21.70
2018-06-24T15:11:50.896Z,21.51
2018-06-24T15:16:34.804Z,21.58
2018-06-24T15:21:18.476Z,21.61
2018-06-24T15:26:02.150Z,21.66
2018-06-24T15:30:51.259Z,21.56
2018-06-24T15:35:34.914Z,21.47
2018-06-24T15:40:21.613Z,21.48
2018-06-24T15:45:05.936Z,21.44
2018-06-24T15:49:53.527Z,21.42
2018-06-24T15:54:36.984Z,21.41
2018-06-24T15:59:23.754Z,21.37
2018-06-24T16:04:07.410Z,21.14
2018-06-24T16:08:51.097Z,21.24
2018-06-24T16:13:34.889Z,21.13
2018-06-24T16:18:18.237Z,21.10
2018-06-24T16:23:01.834Z,21.02
2018-06-24T16:27:45.703Z,21.06
2018-06-24T16:32:34.409Z,21.09
2018-06-24T16:37:18.029Z,21.02
2018-06-24T16:42:01.532Z,20.92
2018-06-24T16:46:45.175Z,21.00
2018-06-24T16:51:28.904Z,21.01
2018-06-24T16:56:13.362Z,20.79
2018-06-24T17:00:57.945Z,20.75
2018-06-24T17:05:41.590Z,20.68
2018-06-24T17:10:25.131Z,20.74
2018-06-24T17:15:08.769Z,20.64
2018-06-24T17:19:52.603Z,20.57
2018-06-24T17:24:36.151Z,20.42
2018-06-24T17:29:22.957Z,20.48
2018-06-24T17:34:06.590Z,20.42
2018-06-24T17:38:50.165Z,20.31
2018-06-24T17:43:33.625Z,20.18
2018-06-24T17:48:20.879Z,20.09
2018-06-24T17:53:04.445Z,20.14
2018-06-24T17:57:47.974Z,20.16
2018-06-24T18:02:34.994Z,20.08
2018-06-24T18:07:18.698Z,20.10
2018-06-24T18:12:03.568Z,20.11
2018-06-24T18:16:47.501Z,20.22
2018-06-24T18:21:31.313Z,20.07
2018-06-24T18:26:16.033Z,20.13
2018-06-24T18:31:03.019Z,20.10
2018-06-24T18:35:46.714Z,20.16
2018-06-24T18:40:33.397Z,20.18
2018-06-24T18:45:18.330Z,19.59
2018-06-24T18:50:04.855Z,18.50
2018-06-24T18:54:48.641Z,19.33
2018-06-24T18:59:47.801Z,18.06
2018-06-24T19:04:30.731Z,18.25
2018-06-24T19:09:15.201Z,19.08
2018-06-24T19:13:59.113Z,19.42
2018-06-24T19:18:42.899Z,19.03
2018-06-24T19:23:27.739Z,19.57
2018-06-24T19:28:11.708Z,19.51
2018-06-24T19:32:55.402Z,19.52
2018-06-24T19:37:39.087Z,19.29
2018-06-24T19:42:22.904Z,18.11
2018-06-24T19:47:06.633Z,17.77
2018-06-24T19:51:50.370Z,17.88
2018-06-24T19:56:34.084Z,18.86
2018-06-24T20:01:22.423Z,19.32
2018-06-24T20:06:06.197Z,18.92
2018-06-24T20:10:53.222Z,18.44
2018-06-24T20:15:36.794Z,17.61
2018-06-24T20:20:24.227Z,17.50
2018-06-24T20:25:07.941Z,17.52
2018-06-24T20:29:56.291Z,18.43
2018-06-24T20:34:40.480Z,18.75
2018-06-24T20:39:24.243Z,18.56
2018-06-24T20:44:07.942Z,18.84
2018-06-24T20:48:55.136Z,18.78
2018-06-24T20:53:38.684Z,17.46
2018-06-24T20:58:26.884Z,18.13
2018-06-24T21:03:10.629Z,18.59
2018-06-24T21:07:57.908Z,17.42
2018-06-24T21:12:41.576Z,18.53
2018-06-24T21:17:25.269Z,18.57
2018-06-24T21:22:09.166Z,18.70
2018-06-24T21:26:52.778Z,16.87
2018-06-24T21:31:36.349Z,16.71
2018-06-24T21:36:19.978Z,17.49
2018-06-24T21:41:06.802Z,17.89
2018-06-24T21:45:50.393Z,16.24
2018-06-24T21:50:35.188Z,16.22
2018-06-24T21:55:18.808Z,17.14
2018-06-24T22:00:02.699Z,17.61
2018-06-24T22:04:46.278Z,17.41
2018-06-24T22:09:31.021Z,16.21
2018-06-24T22:14:14.603Z,16.13
2018-06-24T22:18:58.332Z,16.48
2018-06-24T22:23:41.925Z,17.12
2018-06-24T22:28:25.373Z,16.13
2018-06-24T22:33:08.935Z,15.96
2018-06-24T22:37:55.768Z,16.11
2018-06-24T22:42:39.276Z,16.91
2018-06-24T22:47:22.817Z,15.71
2018-06-24T22:52:06.378Z,15.54
2018-06-24T22:56:50.000Z,16.90
2018-06-24T23:01:33.702Z,15.79
2018-06-24T23:06:17.155Z,15.85
2018-06-24T23:11:04.113Z,16.96
2018-06-24T23:15:47.798Z,16.12
2018-06-24T23:20:31.321Z,17.04
2018-06-24T23:25:14.867Z,16.21
2018-06-24T23:29:59.761Z,15.59
2018-06-24T23:34:43.213Z,15.27
2018-06-24T23:39:30.611Z,16.09
2018-06-24T23:44:14.140Z,16.10
2018-06-24T23:49:01.534Z,15.94
2018-06-24T23:53:45.048Z,16.74
2018-06-24T23:58:31.714Z,16.60
